Time;durP1;ratioP1;P1;durP2;ratioP2;P2;SDS_P1;SDS_P2;PMS_P1;PMS_P2;Temp;Humidity;BMP_temperature;BMP_pressure;BME280_temperature;BME280_humidity;BME280_pressure;Samples;Min_cycle;Max_cycle;Signal;HPM_P1;HPM_P2
2023/04/04 00:00:43;;;;;;;6.22;1.35;;;-0.30;99.90;;;;;;7278819;32;20305;-54
2023/04/04 00:04:45;;;;;;;3.47;1.25;;;-0.30;99.90;;;;;;7283787;32;20104;-55
2023/04/04 00:08:47;;;;;;;4.78;1.50;;;-0.30;99.90;;;;;;7282123;32;20185;-55
2023/04/04 00:12:49;;;;;;;4.57;1.42;;;-0.40;99.90;;;;;;7280175;32;20157;-54
2023/04/04 00:17:04;;;;;;;2.00;1.20;;;-0.40;99.90;;;;;;7278759;32;20242;-55
2023/04/04 00:21:06;;;;;;;3.10;1.23;;;-0.40;99.90;;;;;;7274790;32;20196;-54
2023/04/04 00:25:09;;;;;;;2.78;1.33;;;-0.40;99.90;;;;;;7278338;32;20103;-55
2023/04/04 00:29:11;;;;;;;4.62;1.70;;;-0.60;99.90;;;;;;7275956;32;20141;-55
2023/04/04 00:33:14;;;;;;;3.70;1.27;;;-0.60;99.90;;;;;;7280234;32;20116;-55
2023/04/04 00:37:16;;;;;;;3.33;1.50;;;-0.60;99.90;;;;;;7274610;32;20130;-54
2023/04/04 00:41:18;;;;;;;3.15;1.50;;;-0.60;99.90;;;;;;7277145;32;20609;-54
2023/04/04 00:45:19;;;;;;;5.78;1.70;;;-0.60;99.90;;;;;;7278328;32;20119;-55
2023/04/04 00:49:21;;;;;;;2.75;1.33;;;-0.70;99.90;;;;;;7274787;32;20176;-55
2023/04/04 00:53:23;;;;;;;1.98;1.15;;;-0.70;99.90;;;;;;7279792;32;20702;-54
2023/04/04 00:57:27;;;;;;;2.42;1.37;;;-0.70;99.90;;;;;;7278702;32;20179;-54
2023/04/04 01:01:30;;;;;;;6.15;1.48;;;-0.70;99.90;;;;;;7262528;32;20776;-54
2023/04/04 01:05:32;;;;;;;3.78;1.67;;;-0.70;99.90;;;;;;7263770;32;20176;-54
2023/04/04 01:09:34;;;;;;;4.40;1.33;;;-0.70;99.90;;;;;;7274131;32;20151;-54
2023/04/04 01:13:36;;;;;;;5.22;1.40;;;-0.80;99.90;;;;;;7278629;32;20195;-55
2023/04/04 01:17:40;;;;;;;3.78;1.90;;;-0.80;99.90;;;;;;7278958;32;20231;-54
2023/04/04 01:21:44;;;;;;;5.78;1.80;;;-0.70;99.90;;;;;;7278139;32;20093;-54
2023/04/04 01:25:47;;;;;;;4.78;1.67;;;-0.80;99.90;;;;;;7265431;32;20216;-54
2023/04/04 01:29:49;;;;;;;3.05;1.35;;;-0.80;99.90;;;;;;7276180;32;20107;-55
2023/04/04 01:34:01;;;;;;;3.75;1.35;;;-0.80;99.90;;;;;;7277222;32;20177;-56
2023/04/04 01:38:12;;;;;;;2.28;1.10;;;-0.80;99.90;;;;;;7277335;32;20177;-55
2023/04/04 01:42:15;;;;;;;4.07;1.80;;;-0.80;99.90;;;;;;7273899;32;20104;-54
2023/04/04 01:46:17;;;;;;;3.62;1.50;;;-0.90;99.90;;;;;;7275210;32;20278;-55
2023/04/04 01:50:19;;;;;;;3.60;1.75;;;-0.90;99.90;;;;;;7287553;32;20108;-54
2023/04/04 01:54:21;;;;;;;3.22;1.67;;;-1.00;99.90;;;;;;7261059;32;20183;-54
2023/04/04 01:58:23;;;;;;;5.78;1.67;;;-0.90;99.90;;;;;;7276636;32;20244;-54
2023/04/04 02:02:25;;;;;;;4.85;1.70;;;-1.10;99.90;;;;;;7279413;32;20167;-54
2023/04/04 02:06:28;;;;;;;2.97;1.60;;;-1.10;99.90;;;;;;7276154;32;20273;-55
2023/04/04 02:10:29;;;;;;;4.53;1.73;;;-1.20;99.90;;;;;;7274902;32;20104;-54
2023/04/04 02:14:31;;;;;;;6.25;1.77;;;-1.20;99.90;;;;;;7274307;32;20636;-54
2023/04/04 02:18:33;;;;;;;4.18;1.70;;;-1.20;99.90;;;;;;7275536;32;20553;-54
2023/04/04 02:22:35;;;;;;;4.72;1.80;;;-1.10;99.90;;;;;;7259491;32;20161;-55
2023/04/04 02:26:37;;;;;;;4.10;2.05;;;-1.20;99.90;;;;;;7285841;32;20262;-55
2023/04/04 02:30:39;;;;;;;4.93;1.70;;;-1.10;99.90;;;;;;7275434;32;20171;-55
2023/04/04 02:34:42;;;;;;;3.95;1.60;;;-1.20;99.90;;;;;;7275425;32;20115;-55
2023/04/04 02:38:43;;;;;;;4.75;1.62;;;-1.20;99.90;;;;;;7272958;32;20128;-55
2023/04/04 02:42:45;;;;;;;4.03;1.58;;;-1.20;99.90;;;;;;7274353;32;20111;-54
2023/04/04 02:46:47;;;;;;;4.43;2.00;;;-1.20;99.90;;;;;;7271768;32;20242;-55
2023/04/04 02:50:49;;;;;;;3.80;1.80;;;-1.30;99.90;;;;;;7264954;32;20176;-55
2023/04/04 02:54:51;;;;;;;5.87;2.17;;;-1.30;99.90;;;;;;7272521;32;20142;-54
2023/04/04 02:58:53;;;;;;;3.58;1.83;;;-1.30;99.90;;;;;;7283553;32;20366;-54
2023/04/04 03:02:56;;;;;;;5.43;2.12;;;-1.40;99.90;;;;;;7275646;32;20163;-54
2023/04/04 03:06:58;;;;;;;4.40;2.10;;;-1.40;99.90;;;;;;7274338;32;20305;-55
2023/04/04 03:11:00;;;;;;;3.90;1.80;;;-1.50;99.90;;;;;;7265218;32;20134;-55
2023/04/04 03:15:03;;;;;;;5.95;2.20;;;-1.50;99.90;;;;;;7281803;32;20175;-55
2023/04/04 03:19:05;;;;;;;3.45;1.75;;;-1.60;99.90;;;;;;7287379;32;20197;-55
2023/04/04 03:23:06;;;;;;;4.43;2.17;;;-1.60;99.90;;;;;;7280900;32;20175;-55
2023/04/04 03:27:08;;;;;;;4.60;1.87;;;-1.60;99.90;;;;;;7266708;32;20402;-55
2023/04/04 03:31:10;;;;;;;4.12;1.70;;;-1.70;99.90;;;;;;7285140;32;20272;-56
2023/04/04 03:35:12;;;;;;;4.57;2.22;;;-1.80;99.90;;;;;;7281728;32;20176;-54
2023/04/04 03:39:14;;;;;;;8.35;2.03;;;-1.80;99.90;;;;;;7277801;32;20239;-54
2023/04/04 03:43:16;;;;;;;3.80;1.92;;;-1.70;99.90;;;;;;7276468;32;20130;-54
2023/04/04 03:47:18;;;;;;;4.57;1.98;;;-1.80;99.90;;;;;;7281788;32;20113;-54
2023/04/04 03:51:24;;;;;;;6.97;2.15;;;-1.80;99.90;;;;;;7281296;32;20469;-54
2023/04/04 03:55:26;;;;;;;4.47;2.28;;;-1.70;99.90;;;;;;7280398;32;20210;-54
2023/04/04 03:59:28;;;;;;;4.70;2.10;;;-1.70;99.90;;;;;;7281937;32;20202;-54
2023/04/04 04:03:30;;;;;;;3.92;2.33;;;-1.80;99.90;;;;;;7284518;32;20265;-54
2023/04/04 04:07:32;;;;;;;5.12;1.87;;;-1.80;99.90;;;;;;7293126;32;20139;-54
2023/04/04 04:11:35;;;;;;;5.97;2.22;;;-1.80;99.90;;;;;;7291343;32;20239;-54
2023/04/04 04:15:36;;;;;;;5.22;2.20;;;-1.90;99.90;;;;;;7294486;32;20108;-55
2023/04/04 04:19:38;;;;;;;3.42;1.90;;;-1.80;99.90;;;;;;7270684;32;20215;-55
2023/04/04 04:23:40;;;;;;;4.93;2.00;;;-1.80;99.90;;;;;;7288613;32;20173;-55
2023/04/04 04:27:41;;;;;;;4.18;2.22;;;-1.80;99.90;;;;;;7283825;32;20163;-55
2023/04/04 04:31:43;;;;;;;2.97;2.10;;;-1.80;99.90;;;;;;7284471;32;20183;-55
2023/04/04 04:35:45;;;;;;;4.47;2.15;;;-1.80;99.90;;;;;;7282658;32;20538;-55
2023/04/04 04:39:47;;;;;;;3.90;1.90;;;-1.80;99.90;;;;;;7286577;32;20287;-56
2023/04/04 04:43:49;;;;;;;3.33;1.80;;;-1.80;99.90;;;;;;7270520;32;20441;-55
2023/04/04 04:47:51;;;;;;;3.50;1.92;;;-1.80;99.90;;;;;;7283439;32;20358;-55
2023/04/04 04:51:53;;;;;;;3.50;2.10;;;-1.90;99.90;;;;;;7283192;32;20146;-55
2023/04/04 04:55:55;;;;;;;5.12;1.87;;;-1.90;99.90;;;;;;7284573;32;20137;-54
2023/04/04 04:59:56;;;;;;;5.70;2.17;;;-1.90;99.90;;;;;;7283065;32;20201;-56
2023/04/04 05:03:58;;;;;;;5.03;2.37;;;-1.90;99.90;;;;;;7278390;32;20186;-55
2023/04/04 05:08:01;;;;;;;6.82;2.30;;;-2.00;99.90;;;;;;7280933;32;20182;-56
2023/04/04 05:12:03;;;;;;;6.65;2.67;;;-2.00;99.90;;;;;;7279627;32;20231;-56
2023/04/04 05:16:05;;;;;;;8.45;5.10;;;-1.90;99.90;;;;;;7277068;32;20809;-56
2023/04/04 05:20:07;;;;;;;11.05;5.05;;;-1.90;99.90;;;;;;7282046;32;20214;-56
2023/04/04 05:24:09;;;;;;;4.85;2.60;;;-1.90;99.90;;;;;;7275165;32;20490;-56
2023/04/04 05:28:11;;;;;;;3.65;2.45;;;-1.90;99.90;;;;;;7282633;32;20165;-56
2023/04/04 05:32:13;;;;;;;5.82;2.75;;;-1.90;99.90;;;;;;7280129;32;20217;-55
2023/04/04 05:36:15;;;;;;;4.85;2.55;;;-1.90;99.90;;;;;;7279221;32;20518;-55
2023/04/04 05:40:17;;;;;;;4.25;2.87;;;-1.90;99.90;;;;;;7278662;32;20135;-56
2023/04/04 05:44:19;;;;;;;7.03;2.75;;;-1.80;99.90;;;;;;7275476;32;20562;-56
2023/04/04 05:48:21;;;;;;;5.95;2.78;;;-1.80;99.90;;;;;;7265683;32;20154;-56
2023/04/04 05:52:22;;;;;;;6.90;3.40;;;-1.80;99.90;;;;;;7278859;32;20167;-56
2023/04/04 05:56:24;;;;;;;7.28;3.50;;;-1.70;99.90;;;;;;7280745;32;20594;-56
2023/04/04 06:00:26;;;;;;;3.80;2.37;;;-1.80;99.90;;;;;;7289713;32;20172;-55
2023/04/04 06:04:28;;;;;;;6.30;2.95;;;-1.70;99.90;;;;;;7278957;32;20202;-56
2023/04/04 06:08:30;;;;;;;5.00;3.00;;;-1.70;99.90;;;;;;7279383;32;20563;-57
2023/04/04 06:12:41;;;;;;;7.32;2.70;;;-1.70;99.90;;;;;;7277584;32;20120;-56
2023/04/04 06:16:43;;;;;;;4.43;2.55;;;-1.60;99.90;;;;;;7275780;32;20740;-56
2023/04/04 06:20:45;;;;;;;4.82;2.30;;;-1.50;99.90;;;;;;7285378;32;20594;-57
2023/04/04 06:24:46;;;;;;;5.40;2.62;;;-1.50;99.90;;;;;;7279832;32;20491;-56
2023/04/04 06:28:49;;;;;;;3.37;2.53;;;-1.50;99.90;;;;;;7265819;32;20171;-57
2023/04/04 06:32:51;;;;;;;4.10;2.50;;;-1.30;99.90;;;;;;7279792;32;20237;-56
2023/04/04 06:36:53;;;;;;;7.03;2.72;;;-1.20;99.90;;;;;;7284111;32;20135;-57
2023/04/04 06:40:55;;;;;;;4.22;2.05;;;-1.10;99.90;;;;;;7274472;32;20187;-56
2023/04/04 06:44:57;;;;;;;7.60;2.70;;;-1.10;99.90;;;;;;7283908;32;20823;-56
2023/04/04 06:48:58;;;;;;;5.78;3.17;;;-1.00;99.90;;;;;;7279287;32;20227;-56
2023/04/04 06:53:01;;;;;;;4.93;2.62;;;-0.80;99.90;;;;;;7285413;32;20130;-56
2023/04/04 06:57:03;;;;;;;5.15;2.75;;;-0.70;99.90;;;;;;7286753;32;20104;-56
2023/04/04 07:01:05;;;;;;;8.63;2.53;;;-0.60;99.90;;;;;;7288903;32;20184;-56
2023/04/04 07:05:08;;;;;;;5.75;1.92;;;-0.40;99.90;;;;;;7284781;32;20239;-56
2023/04/04 07:09:11;;;;;;;6.25;2.40;;;-0.20;99.90;;;;;;7274073;32;20115;-56
2023/04/04 07:13:29;;;;;;;7.97;2.20;;;0.00;99.90;;;;;;7276710;32;20215;-56
2023/04/04 07:17:31;;;;;;;6.47;2.53;;;0.20;99.90;;;;;;7271671;32;20556;-56
2023/04/04 07:21:32;;;;;;;4.28;1.70;;;0.50;99.90;;;;;;7271281;32;20235;-56
2023/04/04 07:25:34;;;;;;;6.15;1.75;;;0.70;99.90;;;;;;7277193;32;20115;-57
2023/04/04 07:29:36;;;;;;;3.83;1.25;;;1.00;99.90;;;;;;7272115;32;20116;-57
2023/04/04 07:33:37;;;;;;;6.40;1.92;;;1.30;99.90;;;;;;7270377;32;20132;-55
2023/04/04 07:37:39;;;;;;;5.75;1.60;;;1.60;99.90;;;;;;7275711;32;20187;-56
2023/04/04 07:41:41;;;;;;;5.87;1.33;;;1.80;99.90;;;;;;7272933;32;20171;-56
2023/04/04 07:45:43;;;;;;;3.08;1.33;;;1.90;99.90;;;;;;7275568;32;20176;-56
2023/04/04 07:49:45;;;;;;;5.65;1.52;;;2.40;99.90;;;;;;7278299;32;20578;-58
2023/04/04 07:53:47;;;;;;;5.35;1.65;;;2.80;99.90;;;;;;7264786;32;20554;-58
2023/04/04 07:57:48;;;;;;;4.97;1.30;;;3.30;99.90;;;;;;7276142;32;20356;-56
2023/04/04 08:01:50;;;;;;;3.67;1.33;;;3.70;99.90;;;;;;7279832;32;20190;-55
2023/04/04 08:05:52;;;;;;;3.25;1.17;;;4.40;99.90;;;;;;7287347;32;20215;-56
2023/04/04 08:09:54;;;;;;;4.62;1.20;;;4.80;99.90;;;;;;7286836;32;20199;-56
2023/04/04 08:13:56;;;;;;;3.80;1.42;;;5.70;99.90;;;;;;7284168;32;20427;-56
2023/04/04 08:17:57;;;;;;;3.58;1.37;;;6.30;99.90;;;;;;7283476;32;20151;-56
2023/04/04 08:22:00;;;;;;;5.90;1.30;;;5.80;99.90;;;;;;7289542;32;20124;-54
2023/04/04 08:26:02;;;;;;;4.45;1.17;;;6.10;99.90;;;;;;7283408;32;20205;-56
2023/04/04 08:30:05;;;;;;;5.60;1.12;;;6.30;99.90;;;;;;7281707;32;20120;-56
2023/04/04 08:34:07;;;;;;;3.37;0.90;;;6.20;99.90;;;;;;7289211;32;20740;-57
2023/04/04 08:38:09;;;;;;;4.07;1.10;;;6.40;98.40;;;;;;7289937;32;20954;-57
2023/04/04 08:42:13;;;;;;;4.18;1.37;;;6.60;99.40;;;;;;7283048;32;20209;-59
2023/04/04 08:46:15;;;;;;;5.87;1.10;;;6.80;99.40;;;;;;7281516;32;20170;-56
2023/04/04 08:50:18;;;;;;;5.50;1.10;;;6.40;96.10;;;;;;7289791;32;20576;-57
2023/04/04 08:54:20;;;;;;;3.45;0.95;;;6.30;97.90;;;;;;7282440;32;20108;-57
2023/04/04 08:58:22;;;;;;;2.40;1.20;;;6.80;95.30;;;;;;7285536;32;20705;-56
2023/04/04 09:02:27;;;;;;;5.82;1.30;;;6.90;98.50;;;;;;7282486;32;20748;-56
2023/04/04 09:06:30;;;;;;;3.22;1.00;;;7.30;96.00;;;;;;7277352;32;20227;-57
2023/04/04 09:10:33;;;;;;;3.37;1.20;;;7.20;93.60;;;;;;7283667;32;20151;-56
2023/04/04 09:14:37;;;;;;;4.57;1.12;;;7.00;95.40;;;;;;7279552;32;20171;-56
2023/04/04 09:18:39;;;;;;;2.87;1.05;;;8.10;94.50;;;;;;7275051;32;20230;-57
2023/04/04 09:22:44;;;;;;;3.17;1.37;;;8.20;93.90;;;;;;7277910;32;20173;-57
2023/04/04 09:26:52;;;;;;;2.90;1.20;;;8.70;90.00;;;;;;7279690;32;20270;-57
2023/04/04 09:30:54;;;;;;;3.40;1.10;;;9.00;89.10;;;;;;7274494;32;20341;-57
2023/04/04 09:34:56;;;;;;;3.40;1.40;;;9.00;86.20;;;;;;7277475;32;20123;-57
2023/04/04 09:38:58;;;;;;;3.22;1.50;;;8.80;82.30;;;;;;7281179;32;20146;-57
2023/04/04 09:43:01;;;;;;;4.32;1.48;;;8.90;83.20;;;;;;7285220;32;20199;-56
2023/04/04 09:47:26;;;;;;;4.62;1.60;;;9.30;88.50;;;;;;7277944;32;20178;-57
2023/04/04 09:51:36;;;;;;;3.35;1.40;;;10.20;86.70;;;;;;7271721;32;20124;-57
2023/04/04 09:55:38;;;;;;;5.15;1.42;;;10.50;75.40;;;;;;7274502;32;20127;-59
2023/04/04 09:59:41;;;;;;;5.70;1.60;;;10.60;73.30;;;;;;7276371;32;20190;-57
2023/04/04 10:03:52;;;;;;;5.47;1.48;;;12.40;74.50;;;;;;7271925;32;20249;-57
2023/04/04 10:07:55;;;;;;;3.80;1.60;;;12.60;66.60;;;;;;7282081;32;20211;-57
2023/04/04 10:12:08;;;;;;;4.25;1.48;;;12.10;63.60;;;;;;7274055;32;20192;-56
2023/04/04 10:16:10;;;;;;;4.95;1.60;;;13.60;60.40;;;;;;7268644;32;20213;-57
2023/04/04 10:20:13;;;;;;;3.58;1.55;;;13.60;56.60;;;;;;7272321;32;20104;-57
2023/04/04 10:24:16;;;;;;;2.80;1.58;;;13.40;59.90;;;;;;7275966;32;20401;-57
2023/04/04 10:28:20;;;;;;;3.53;1.50;;;13.00;55.90;;;;;;7274269;32;20210;-56
2023/04/04 10:32:28;;;;;;;4.62;1.60;;;12.50;59.00;;;;;;7273805;32;20162;-57
2023/04/04 10:36:39;;;;;;;7.15;1.80;;;13.00;57.80;;;;;;7270600;32;20260;-56
2023/04/04 10:40:48;;;;;;;5.55;1.55;;;15.00;54.10;;;;;;7275191;32;20209;-57
2023/04/04 10:44:50;;;;;;;3.42;1.50;;;14.20;55.30;;;;;;7280100;32;20457;-57
2023/04/04 10:48:52;;;;;;;2.30;1.45;;;13.20;57.00;;;;;;7274984;32;20227;-57
2023/04/04 10:52:57;;;;;;;5.18;1.70;;;13.10;57.50;;;;;;7263481;32;20138;-57
2023/04/04 10:57:02;;;;;;;4.22;1.70;;;13.00;53.70;;;;;;7274679;32;20145;-57
2023/04/04 11:01:06;;;;;;;5.93;1.70;;;13.90;54.50;;;;;;7280684;32;20127;-57
2023/04/04 11:05:23;;;;;;;4.93;1.85;;;14.20;53.00;;;;;;7276463;32;20510;-58
2023/04/04 11:09:50;;;;;;;3.53;1.73;;;14.70;52.30;;;;;;7272976;32;20502;-62
2023/04/04 11:14:00;;;;;;;7.68;2.20;;;14.50;54.30;;;;;;7271136;32;20135;-57
2023/04/04 11:18:05;;;;;;;5.85;1.65;;;14.70;52.10;;;;;;7282463;32;20138;-57
2023/04/04 11:22:27;;;;;;;4.75;1.95;;;14.10;53.30;;;;;;7279317;32;20495;-57
2023/04/04 11:26:31;;;;;;;8.70;1.80;;;14.60;51.30;;;;;;7281619;32;20136;-58
2023/04/04 11:30:47;;;;;;;3.80;1.67;;;14.50;50.20;;;;;;7280606;32;20578;-57
2023/04/04 11:34:49;;;;;;;3.35;2.03;;;15.90;51.00;;;;;;7279248;32;20157;-57
2023/04/04 11:38:51;;;;;;;5.55;2.03;;;15.00;48.30;;;;;;7285767;32;20193;-57
2023/04/04 11:42:54;;;;;;;5.53;1.75;;;14.90;51.60;;;;;;7277363;32;20124;-57
2023/04/04 11:47:05;;;;;;;6.03;1.77;;;15.20;49.80;;;;;;7280644;32;20217;-56
2023/04/04 11:51:08;;;;;;;4.15;2.00;;;15.50;49.70;;;;;;7284849;32;20119;-56
2023/04/04 11:55:18;;;;;;;7.40;1.77;;;15.10;48.00;;;;;;7285916;32;20519;-56
2023/04/04 11:59:21;;;;;;;4.20;1.62;;;14.50;49.90;;;;;;7269320;32;20294;-56
2023/04/04 12:03:27;;;;;;;3.55;1.70;;;15.00;51.20;;;;;;7287517;32;20115;-56
2023/04/04 12:07:29;;;;;;;3.55;1.70;;;14.90;51.20;;;;;;7277330;32;20144;-56
2023/04/04 12:11:33;;;;;;;3.05;1.50;;;15.00;52.10;;;;;;7284164;32;20490;-57
2023/04/04 12:15:36;;;;;;;4.22;1.90;;;16.10;50.00;;;;;;7280984;32;20115;-57
2023/04/04 12:19:39;;;;;;;3.70;1.50;;;15.50;46.90;;;;;;7280687;32;20116;-56
2023/04/04 12:23:41;;;;;;;4.95;1.50;;;15.40;47.70;;;;;;7277244;32;20272;-56
2023/04/04 12:27:43;;;;;;;2.75;1.30;;;14.70;46.60;;;;;;7277996;32;20731;-56
2023/04/04 12:31:46;;;;;;;5.50;1.48;;;14.20;47.70;;;;;;7278795;32;20527;-56
2023/04/04 12:35:53;;;;;;;3.40;1.55;;;14.80;45.80;;;;;;7267490;32;20284;-57
2023/04/04 12:39:55;;;;;;;3.15;1.65;;;15.60;46.60;;;;;;7275263;32;20609;-56
2023/04/04 12:44:08;;;;;;;2.05;1.33;;;14.90;45.60;;;;;;7281146;32;20656;-57
2023/04/04 12:48:13;;;;;;;3.30;1.60;;;15.40;49.20;;;;;;7273933;32;20132;-56
2023/04/04 12:52:26;;;;;;;4.93;1.75;;;14.80;44.80;;;;;;7277120;32;20567;-56
2023/04/04 12:56:30;;;;;;;6.22;1.90;;;13.20;50.10;;;;;;7263411;32;20631;-57
2023/04/04 13:00:32;;;;;;;4.57;2.15;;;13.50;49.90;;;;;;7280182;32;20472;-56
2023/04/04 13:04:34;;;;;;;4.25;1.70;;;13.70;51.00;;;;;;7274421;32;20514;-56
2023/04/04 13:08:36;;;;;;;3.72;1.95;;;13.70;49.70;;;;;;7275791;32;20651;-56
2023/04/04 13:12:58;;;;;;;4.80;1.75;;;13.90;48.90;;;;;;7276250;32;20222;-57
2023/04/04 13:17:08;;;;;;;2.85;1.50;;;13.80;50.00;;;;;;7279059;32;20186;-56
2023/04/04 13:21:11;;;;;;;4.05;1.67;;;15.10;48.00;;;;;;7275498;32;20243;-57
2023/04/04 13:25:12;;;;;;;5.20;2.72;;;13.30;48.00;;;;;;7274029;32;20254;-56
2023/04/04 13:29:14;;;;;;;4.15;1.85;;;13.00;49.50;;;;;;7279130;32;20134;-57
2023/04/04 13:33:17;;;;;;;4.78;2.72;;;13.20;50.70;;;;;;7281661;32;20183;-57
2023/04/04 13:37:19;;;;;;;8.30;1.73;;;14.00;50.30;;;;;;7282038;32;20148;-56
2023/04/04 13:41:21;;;;;;;6.55;1.75;;;14.00;47.50;;;;;;7259712;32;20168;-55
2023/04/04 13:45:23;;;;;;;4.72;1.92;;;14.90;50.20;;;;;;7280675;32;20163;-56
2023/04/04 13:49:24;;;;;;;4.25;2.28;;;15.60;49.30;;;;;;7274586;32;20628;-55
2023/04/04 13:53:26;;;;;;;3.97;1.62;;;15.10;47.80;;;;;;7277067;32;20206;-55
2023/04/04 13:57:28;;;;;;;4.53;1.83;;;15.80;47.30;;;;;;7276944;32;20350;-55
2023/04/04 14:01:30;;;;;;;4.65;1.83;;;16.20;46.00;;;;;;7279266;32;20223;-56
2023/04/04 14:05:32;;;;;;;4.03;1.73;;;16.90;46.20;;;;;;7274825;32;20232;-56
2023/04/04 14:09:33;;;;;;;5.95;1.85;;;17.30;43.40;;;;;;7282476;32;20487;-56
2023/04/04 14:13:35;;;;;;;3.55;1.77;;;16.80;44.00;;;;;;7279352;32;20163;-55
2023/04/04 14:17:37;;;;;;;5.78;2.15;;;15.90;44.40;;;;;;7281422;32;20208;-56
2023/04/04 14:21:39;;;;;;;7.15;2.37;;;15.90;44.20;;;;;;7286016;32;20154;-56
2023/04/04 14:25:41;;;;;;;5.15;2.20;;;16.10;45.90;;;;;;7285474;32;20108;-56
2023/04/04 14:29:43;;;;;;;5.10;2.03;;;16.40;44.50;;;;;;7279905;32;20173;-56
2023/04/04 14:33:45;;;;;;;5.60;2.33;;;16.00;46.10;;;;;;7276953;32;20161;-56
2023/04/04 14:37:48;;;;;;;5.80;2.47;;;16.80;46.80;;;;;;7278239;32;20273;-55
2023/04/04 14:41:50;;;;;;;3.60;2.37;;;14.80;45.40;;;;;;7274751;32;20162;-55
2023/04/04 14:45:52;;;;;;;4.47;2.17;;;14.80;48.10;;;;;;7282198;32;20194;-57
2023/04/04 14:49:55;;;;;;;4.68;2.62;;;13.40;50.40;;;;;;7277488;32;20294;-56
2023/04/04 14:53:57;;;;;;;5.80;2.08;;;12.40;52.10;;;;;;7278595;32;20116;-56
2023/04/04 14:57:58;;;;;;;2.60;1.83;;;11.80;51.60;;;;;;7277641;32;20136;-55
2023/04/04 15:02:03;;;;;;;4.90;2.20;;;11.50;55.00;;;;;;7283748;32;20172;-55
2023/04/04 15:06:05;;;;;;;5.78;2.60;;;10.80;55.60;;;;;;7280823;32;20860;-55
2023/04/04 15:10:08;;;;;;;6.60;3.37;;;10.40;55.50;;;;;;7283680;32;20322;-55
2023/04/04 15:14:09;;;;;;;5.78;2.30;;;10.60;59.40;;;;;;7283690;32;20143;-55
2023/04/04 15:18:11;;;;;;;8.13;2.58;;;11.00;57.50;;;;;;7278725;32;20211;-56
2023/04/04 15:22:13;;;;;;;6.72;2.78;;;10.70;57.70;;;;;;7283212;32;20736;-55
2023/04/04 15:26:15;;;;;;;4.43;2.28;;;10.60;57.60;;;;;;7276365;32;20235;-55
2023/04/04 15:30:16;;;;;;;4.72;2.37;;;10.50;58.00;;;;;;7279631;32;20500;-55
2023/04/04 15:34:18;;;;;;;6.35;2.95;;;10.00;57.80;;;;;;7283354;32;20116;-56
2023/04/04 15:38:20;;;;;;;5.62;2.22;;;10.10;59.20;;;;;;7282773;32;20599;-55
2023/04/04 15:42:24;;;;;;;9.45;5.47;;;9.80;58.80;;;;;;7283140;32;20122;-55
2023/04/04 15:46:27;;;;;;;5.50;2.22;;;9.70;60.20;;;;;;7278650;32;20254;-55
2023/04/04 15:50:29;;;;;;;5.87;2.25;;;9.30;59.50;;;;;;7277825;32;20224;-56
2023/04/04 15:54:31;;;;;;;6.87;2.55;;;9.10;60.20;;;;;;7276277;32;20293;-56
2023/04/04 15:58:32;;;;;;;4.22;2.22;;;9.10;63.40;;;;;;7276553;32;20614;-55
2023/04/04 16:02:34;;;;;;;6.10;2.45;;;9.00;64.10;;;;;;7281070;32;20255;-55
2023/04/04 16:06:36;;;;;;;5.68;2.25;;;8.90;64.40;;;;;;7262736;32;20132;-56
2023/04/04 16:10:40;;;;;;;8.15;2.95;;;8.90;67.30;;;;;;7285349;32;20219;-55
2023/04/04 16:14:42;;;;;;;6.75;3.20;;;8.80;67.10;;;;;;7279655;32;20158;-56
2023/04/04 16:18:44;;;;;;;7.37;2.80;;;8.70;67.30;;;;;;7286209;32;20246;-56
2023/04/04 16:22:46;;;;;;;6.15;2.90;;;8.50;69.10;;;;;;7280531;32;20328;-56
2023/04/04 16:26:48;;;;;;;5.22;2.55;;;8.40;70.30;;;;;;7276019;32;20108;-56
2023/04/04 16:30:51;;;;;;;7.50;2.90;;;8.20;70.20;;;;;;7285204;32;20112;-55
2023/04/04 16:34:53;;;;;;;4.70;2.08;;;8.20;70.80;;;;;;7276954;32;20124;-56
2023/04/04 16:38:56;;;;;;;5.43;2.70;;;8.20;71.20;;;;;;7282755;32;20225;-56
2023/04/04 16:42:58;;;;;;;6.40;2.45;;;8.00;71.50;;;;;;7278335;32;20188;-56
2023/04/04 16:47:00;;;;;;;5.07;2.47;;;7.90;72.00;;;;;;7277280;32;20489;-56
2023/04/04 16:51:02;;;;;;;7.25;2.40;;;7.90;73.50;;;;;;7277224;32;20605;-56
2023/04/04 16:55:04;;;;;;;5.82;2.53;;;7.90;75.60;;;;;;7281993;32;20134;-56
2023/04/04 16:59:06;;;;;;;5.72;2.28;;;7.90;75.60;;;;;;7280797;32;20211;-56
2023/04/04 17:03:08;;;;;;;5.22;2.62;;;7.80;78.00;;;;;;7270862;32;20589;-55
2023/04/04 17:07:09;;;;;;;3.97;2.33;;;7.60;78.70;;;;;;7274986;32;20173;-54
2023/04/04 17:11:14;;;;;;;4.47;2.30;;;7.60;77.00;;;;;;7257725;32;20210;-56
2023/04/04 17:15:16;;;;;;;4.62;2.35;;;7.60;80.20;;;;;;7274980;32;20735;-56
2023/04/04 17:19:18;;;;;;;6.37;2.17;;;7.50;80.30;;;;;;7270119;32;20653;-57
2023/04/04 17:23:20;;;;;;;5.45;1.90;;;7.50;82.30;;;;;;7270284;32;20215;-56
2023/04/04 17:27:22;;;;;;;3.62;1.92;;;7.20;85.90;;;;;;7273785;32;20224;-56
2023/04/04 17:31:24;;;;;;;3.47;2.20;;;7.10;84.80;;;;;;7277086;32;20135;-56
2023/04/04 17:35:26;;;;;;;4.03;2.10;;;6.90;85.10;;;;;;7282875;32;20873;-56
2023/04/04 17:39:28;;;;;;;4.35;1.70;;;6.80;90.30;;;;;;7271424;32;20191;-57
2023/04/04 17:43:30;;;;;;;3.75;2.00;;;6.70;93.30;;;;;;7271690;32;20273;-56
2023/04/04 17:47:32;;;;;;;2.58;1.58;;;6.50;94.10;;;;;;7274335;32;20150;-56
2023/04/04 17:51:33;;;;;;;4.35;1.90;;;6.40;95.20;;;;;;7277599;32;20262;-56
2023/04/04 17:55:35;;;;;;;4.22;1.60;;;6.30;96.60;;;;;;7286110;32;20246;-56
2023/04/04 17:59:37;;;;;;;4.05;2.00;;;6.10;97.80;;;;;;7270204;32;20139;-57
2023/04/04 18:03:39;;;;;;;5.95;1.70;;;6.10;99.20;;;;;;7281739;32;20750;-56
2023/04/04 18:07:41;;;;;;;5.93;2.65;;;5.90;99.90;;;;;;7281726;32;20682;-56
2023/04/04 18:11:43;;;;;;;4.78;2.45;;;5.70;99.90;;;;;;7274815;32;20271;-56
2023/04/04 18:15:45;;;;;;;8.93;6.07;;;5.50;99.90;;;;;;7266991;32;20236;-55
2023/04/04 18:19:46;;;;;;;9.48;4.30;;;5.30;99.90;;;;;;7279489;32;20135;-56
2023/04/04 18:23:48;;;;;;;5.47;3.12;;;5.10;99.90;;;;;;7277706;32;20111;-56
2023/04/04 18:27:50;;;;;;;4.80;2.60;;;4.90;99.90;;;;;;7273144;32;20117;-56
2023/04/04 18:31:52;;;;;;;4.95;2.25;;;4.70;99.90;;;;;;7277074;32;20223;-56
2023/04/04 18:35:54;;;;;;;6.68;2.87;;;4.60;99.90;;;;;;7278768;32;20120;-56
2023/04/04 18:39:55;;;;;;;8.02;4.85;;;4.40;99.90;;;;;;7272115;32;20583;-55
2023/04/04 18:43:57;;;;;;;6.40;4.40;;;4.20;99.90;;;;;;7271618;32;20580;-55
2023/04/04 18:48:00;;;;;;;9.93;3.50;;;4.10;99.90;;;;;;7275000;32;20116;-56
2023/04/04 18:52:01;;;;;;;5.72;3.17;;;3.90;99.90;;;;;;7278934;32;20158;-55
2023/04/04 18:56:03;;;;;;;10.57;3.67;;;3.80;99.90;;;;;;7281793;32;20588;-56
2023/04/04 19:00:06;;;;;;;5.90;2.75;;;3.60;99.90;;;;;;7275937;32;20846;-56
2023/04/04 19:04:19;;;;;;;5.65;2.20;;;3.50;99.90;;;;;;7283797;32;20203;-56
2023/04/04 19:08:22;;;;;;;6.20;2.58;;;3.40;99.90;;;;;;7282476;32;20495;-56
2023/04/04 19:12:24;;;;;;;5.45;2.30;;;3.30;99.90;;;;;;7286061;32;20134;-56
2023/04/04 19:16:26;;;;;;;6.50;2.25;;;3.20;99.90;;;;;;7280378;32;20146;-56
2023/04/04 19:20:28;;;;;;;7.53;2.20;;;3.00;99.90;;;;;;7280012;32;20134;-56
2023/04/04 19:24:30;;;;;;;5.78;2.35;;;2.90;99.90;;;;;;7254118;32;20156;-56
2023/04/04 19:28:32;;;;;;;7.15;2.40;;;2.90;99.90;;;;;;7284683;32;20104;-56
2023/04/04 19:32:35;;;;;;;6.07;2.62;;;2.80;99.90;;;;;;7286963;32;20466;-55
2023/04/04 19:36:36;;;;;;;6.22;2.58;;;2.80;99.90;;;;;;7287093;32;20120;-56
2023/04/04 19:40:54;;;;;;;6.60;2.92;;;2.70;99.90;;;;;;7253192;32;20131;-55
2023/04/04 19:44:56;;;;;;;6.05;3.53;;;2.70;99.90;;;;;;7285485;32;20143;-56
2023/04/04 19:48:59;;;;;;;10.10;4.70;;;2.70;99.90;;;;;;7273127;32;20142;-56
2023/04/04 19:53:02;;;;;;;9.18;4.97;;;2.80;99.90;;;;;;7282310;32;20175;-55
2023/04/04 19:57:06;;;;;;;7.28;3.67;;;2.80;99.90;;;;;;7293961;32;20161;-55
2023/04/04 20:01:09;;;;;;;6.80;3.85;;;2.70;99.90;;;;;;7286143;32;20131;-56
2023/04/04 20:05:46;;;;;;;7.32;3.10;;;2.70;99.90;;;;;;7288406;32;20209;-55
2023/04/04 20:09:50;;;;;;;6.78;3.08;;;2.60;99.90;;;;;;7276043;32;20718;-55
2023/04/04 20:13:52;;;;;;;5.78;3.05;;;2.60;99.90;;;;;;7280676;32;20262;-55
2023/04/04 20:17:53;;;;;;;4.82;2.80;;;2.40;99.90;;;;;;7276478;32;20134;-54
2023/04/04 20:21:56;;;;;;;9.70;5.07;;;2.50;99.90;;;;;;7281038;32;20112;-54
2023/04/04 20:26:05;;;;;;;5.15;3.35;;;2.60;99.90;;;;;;7271157;32;20352;-54
2023/04/04 20:30:10;;;;;;;7.15;4.03;;;2.50;99.90;;;;;;7288833;32;20193;-54
2023/04/04 20:34:40;;;;;;;7.85;4.30;;;2.50;99.90;;;;;;7278658;32;20156;-54
2023/04/04 20:38:43;;;;;;;10.63;4.43;;;2.50;99.90;;;;;;7284268;32;20239;-54
2023/04/04 20:42:45;;;;;;;11.05;4.53;;;2.50;99.90;;;;;;7278375;32;20168;-54
2023/04/04 20:46:47;;;;;;;7.75;4.07;;;2.50;99.90;;;;;;7277568;32;20219;-55
2023/04/04 20:50:49;;;;;;;10.63;4.68;;;2.50;99.90;;;;;;7283171;32;20188;-56
2023/04/04 20:54:50;;;;;;;10.23;4.50;;;2.40;99.90;;;;;;7283221;32;20124;-55
2023/04/04 20:58:52;;;;;;;8.30;4.50;;;2.40;99.90;;;;;;7276701;32;20415;-54
2023/04/04 21:03:00;;;;;;;8.13;4.57;;;2.40;99.90;;;;;;7264748;32;20518;-55
2023/04/04 21:07:03;;;;;;;7.70;4.00;;;2.40;99.90;;;;;;7277065;32;20154;-54
2023/04/04 21:11:05;;;;;;;7.18;4.20;;;2.40;99.90;;;;;;7279278;32;20845;-54